sensor_id;sensor_type;location;lat;lon;timestamp;P1;durP1;ratioP1;P2;durP2;ratioP2
72635;SDS011;60679;48.888;15.544;2023-09-19T00:00:33;3.28;;;0.65;;
72635;SDS011;60679;48.888;15.544;2023-09-19T00:02:59;2.97;;;0.80;;
72635;SDS011;60679;48.888;15.544;2023-09-19T00:05:28;2.40;;;0.40;;
72635;SDS011;60679;48.888;15.544;2023-09-19T00:07:56;2.70;;;0.60;;
72635;SDS011;60679;48.888;15.544;2023-09-19T00:10:25;2.40;;;0.47;;
72635;SDS011;60679;48.888;15.544;2023-09-19T00:12:54;2.55;;;0.50;;
72635;SDS011;60679;48.888;15.544;2023-09-19T00:15:20;3.90;;;0.70;;
72635;SDS011;60679;48.888;15.544;2023-09-19T00:17:46;2.83;;;0.68;;
72635;SDS011;60679;48.888;15.544;2023-09-19T00:20:12;4.23;;;0.90;;
72635;SDS011;60679;48.888;15.544;2023-09-19T00:22:40;4.05;;;0.70;;
72635;SDS011;60679;48.888;15.544;2023-09-19T00:25:07;3.28;;;0.70;;
72635;SDS011;60679;48.888;15.544;2023-09-19T00:27:32;2.87;;;0.60;;
72635;SDS011;60679;48.888;15.544;2023-09-19T00:30:00;2.45;;;0.50;;
72635;SDS011;60679;48.888;15.544;2023-09-19T00:32:26;4.53;;;0.90;;
72635;SDS011;60679;48.888;15.544;2023-09-19T00:34:57;2.83;;;0.60;;
72635;SDS011;60679;48.888;15.544;2023-09-19T00:37:22;2.65;;;0.60;;
72635;SDS011;60679;48.888;15.544;2023-09-19T00:39:48;3.70;;;1.07;;
72635;SDS011;60679;48.888;15.544;2023-09-19T00:42:19;3.20;;;0.60;;
72635;SDS011;60679;48.888;15.544;2023-09-19T00:44:47;2.50;;;0.45;;
72635;SDS011;60679;48.888;15.544;2023-09-19T00:47:16;3.73;;;0.60;;
72635;SDS011;60679;48.888;15.544;2023-09-19T00:49:43;2.80;;;0.60;;
72635;SDS011;60679;48.888;15.544;2023-09-19T00:52:14;2.72;;;0.60;;
72635;SDS011;60679;48.888;15.544;2023-09-19T00:54:39;2.80;;;0.57;;
72635;SDS011;60679;48.888;15.544;2023-09-19T00:57:05;4.20;;;1.10;;
72635;SDS011;60679;48.888;15.544;2023-09-19T00:59:30;2.60;;;0.50;;
72635;SDS011;60679;48.888;15.544;2023-09-19T01:01:56;3.03;;;0.60;;
72635;SDS011;60679;48.888;15.544;2023-09-19T01:04:25;4.23;;;0.50;;
72635;SDS011;60679;48.888;15.544;2023-09-19T01:06:50;2.42;;;0.40;;
72635;SDS011;60679;48.888;15.544;2023-09-19T01:09:19;2.30;;;0.50;;
72635;SDS011;60679;48.888;15.544;2023-09-19T01:11:45;3.53;;;0.77;;
72635;SDS011;60679;48.888;15.544;2023-09-19T01:14:20;7.60;;;0.70;;
72635;SDS011;60679;48.888;15.544;2023-09-19T01:22:56;4.17;;;0.50;;
72635;SDS011;60679;48.888;15.544;2023-09-19T01:28:38;2.85;;;0.55;;
72635;SDS011;60679;48.888;15.544;2023-09-19T01:31:09;4.63;;;0.88;;
72635;SDS011;60679;48.888;15.544;2023-09-19T01:33:55;3.08;;;0.70;;
72635;SDS011;60679;48.888;15.544;2023-09-19T01:36:29;2.93;;;0.60;;
72635;SDS011;60679;48.888;15.544;2023-09-19T01:38:59;2.50;;;0.50;;
72635;SDS011;60679;48.888;15.544;2023-09-19T01:47:37;3.38;;;0.77;;
72635;SDS011;60679;48.888;15.544;2023-09-19T01:52:57;2.72;;;0.50;;
72635;SDS011;60679;48.888;15.544;2023-09-19T01:55:29;2.58;;;0.50;;
72635;SDS011;60679;48.888;15.544;2023-09-19T01:58:01;2.25;;;0.40;;
72635;SDS011;60679;48.888;15.544;2023-09-19T02:00:36;2.85;;;0.65;;
72635;SDS011;60679;48.888;15.544;2023-09-19T02:03:05;2.47;;;0.40;;
72635;SDS011;60679;48.888;15.544;2023-09-19T02:05:30;2.15;;;0.40;;
72635;SDS011;60679;48.888;15.544;2023-09-19T02:07:58;2.97;;;0.95;;
72635;SDS011;60679;48.888;15.544;2023-09-19T02:10:23;2.47;;;0.47;;
72635;SDS011;60679;48.888;15.544;2023-09-19T02:12:49;2.60;;;0.53;;
72635;SDS011;60679;48.888;15.544;2023-09-19T02:15:15;3.00;;;0.73;;
72635;SDS011;60679;48.888;15.544;2023-09-19T02:17:42;2.83;;;0.57;;
72635;SDS011;60679;48.888;15.544;2023-09-19T02:20:09;2.72;;;0.43;;
72635;SDS011;60679;48.888;15.544;2023-09-19T02:22:40;2.53;;;0.40;;
72635;SDS011;60679;48.888;15.544;2023-09-19T02:25:09;2.78;;;0.52;;
72635;SDS011;60679;48.888;15.544;2023-09-19T02:27:35;3.75;;;0.98;;
72635;SDS011;60679;48.888;15.544;2023-09-19T02:30:01;2.70;;;0.57;;
72635;SDS011;60679;48.888;15.544;2023-09-19T02:32:27;2.50;;;0.50;;
72635;SDS011;60679;48.888;15.544;2023-09-19T02:34:55;4.07;;;0.95;;
72635;SDS011;60679;48.888;15.544;2023-09-19T02:37:20;2.57;;;0.50;;
72635;SDS011;60679;48.888;15.544;2023-09-19T02:39:46;2.47;;;0.50;;
72635;SDS011;60679;48.888;15.544;2023-09-19T02:42:11;2.60;;;0.50;;
72635;SDS011;60679;48.888;15.544;2023-09-19T02:44:37;2.75;;;0.75;;
72635;SDS011;60679;48.888;15.544;2023-09-19T02:47:03;2.33;;;0.43;;
72635;SDS011;60679;48.888;15.544;2023-09-19T02:49:29;2.30;;;0.43;;
72635;SDS011;60679;48.888;15.544;2023-09-19T02:51:54;2.50;;;0.50;;
72635;SDS011;60679;48.888;15.544;2023-09-19T02:54:20;3.10;;;0.70;;
72635;SDS011;60679;48.888;15.544;2023-09-19T02:56:46;2.60;;;0.60;;
72635;SDS011;60679;48.888;15.544;2023-09-19T02:59:12;2.28;;;0.50;;
72635;SDS011;60679;48.888;15.544;2023-09-19T03:01:38;2.17;;;0.40;;
72635;SDS011;60679;48.888;15.544;2023-09-19T03:04:04;2.35;;;0.47;;
72635;SDS011;60679;48.888;15.544;2023-09-19T03:06:33;2.53;;;0.50;;
72635;SDS011;60679;48.888;15.544;2023-09-19T03:08:59;2.33;;;0.50;;
72635;SDS011;60679;48.888;15.544;2023-09-19T03:11:25;2.10;;;0.30;;
72635;SDS011;60679;48.888;15.544;2023-09-19T03:13:52;2.55;;;0.50;;
72635;SDS011;60679;48.888;15.544;2023-09-19T03:16:18;2.90;;;0.68;;
72635;SDS011;60679;48.888;15.544;2023-09-19T03:18:47;2.40;;;0.40;;
72635;SDS011;60679;48.888;15.544;2023-09-19T03:21:14;2.58;;;0.50;;
72635;SDS011;60679;48.888;15.544;2023-09-19T03:23:40;2.30;;;0.40;;
72635;SDS011;60679;48.888;15.544;2023-09-19T03:26:08;2.50;;;0.60;;
72635;SDS011;60679;48.888;15.544;2023-09-19T03:28:33;3.45;;;0.85;;
72635;SDS011;60679;48.888;15.544;2023-09-19T03:31:03;2.17;;;0.40;;
72635;SDS011;60679;48.888;15.544;2023-09-19T03:33:30;2.08;;;0.30;;
72635;SDS011;60679;48.888;15.544;2023-09-19T03:35:59;3.15;;;0.75;;
72635;SDS011;60679;48.888;15.544;2023-09-19T03:38:26;3.65;;;0.88;;
72635;SDS011;60679;48.888;15.544;2023-09-19T03:40:53;3.13;;;0.63;;
72635;SDS011;60679;48.888;15.544;2023-09-19T03:43:18;2.33;;;0.50;;
72635;SDS011;60679;48.888;15.544;2023-09-19T03:45:44;2.67;;;0.57;;
72635;SDS011;60679;48.888;15.544;2023-09-19T03:48:11;3.17;;;0.52;;
72635;SDS011;60679;48.888;15.544;2023-09-19T03:50:38;2.72;;;0.57;;
72635;SDS011;60679;48.888;15.544;2023-09-19T03:53:04;2.50;;;0.50;;
72635;SDS011;60679;48.888;15.544;2023-09-19T03:55:32;5.47;;;0.57;;
72635;SDS011;60679;48.888;15.544;2023-09-19T03:58:00;2.93;;;0.60;;
72635;SDS011;60679;48.888;15.544;2023-09-19T04:00:26;2.35;;;0.50;;
72635;SDS011;60679;48.888;15.544;2023-09-19T04:02:52;2.60;;;0.50;;
72635;SDS011;60679;48.888;15.544;2023-09-19T04:05:18;2.10;;;0.40;;
72635;SDS011;60679;48.888;15.544;2023-09-19T04:07:44;3.60;;;0.73;;
72635;SDS011;60679;48.888;15.544;2023-09-19T04:10:10;3.00;;;0.67;;
72635;SDS011;60679;48.888;15.544;2023-09-19T04:12:39;2.00;;;0.35;;
72635;SDS011;60679;48.888;15.544;2023-09-19T04:15:05;4.95;;;0.70;;
72635;SDS011;60679;48.888;15.544;2023-09-19T04:17:31;2.60;;;0.40;;
72635;SDS011;60679;48.888;15.544;2023-09-19T04:20:00;2.25;;;0.47;;
72635;SDS011;60679;48.888;15.544;2023-09-19T04:22:26;2.70;;;0.70;;
72635;SDS011;60679;48.888;15.544;2023-09-19T04:24:51;2.63;;;0.53;;
72635;SDS011;60679;48.888;15.544;2023-09-19T04:27:17;3.00;;;0.50;;
72635;SDS011;60679;48.888;15.544;2023-09-19T04:29:44;2.90;;;0.60;;
72635;SDS011;60679;48.888;15.544;2023-09-19T04:32:09;3.05;;;0.52;;
72635;SDS011;60679;48.888;15.544;2023-09-19T04:34:35;2.92;;;0.60;;
72635;SDS011;60679;48.888;15.544;2023-09-19T04:37:01;3.13;;;0.60;;
72635;SDS011;60679;48.888;15.544;2023-09-19T04:39:27;3.60;;;0.60;;
72635;SDS011;60679;48.888;15.544;2023-09-19T04:41:53;3.17;;;0.70;;
72635;SDS011;60679;48.888;15.544;2023-09-19T04:44:19;2.85;;;0.65;;
72635;SDS011;60679;48.888;15.544;2023-09-19T04:46:45;2.50;;;0.40;;
72635;SDS011;60679;48.888;15.544;2023-09-19T04:49:14;5.07;;;0.88;;
72635;SDS011;60679;48.888;15.544;2023-09-19T04:51:39;2.60;;;0.57;;
72635;SDS011;60679;48.888;15.544;2023-09-19T04:54:05;2.92;;;0.60;;
72635;SDS011;60679;48.888;15.544;2023-09-19T04:56:30;3.10;;;0.87;;
72635;SDS011;60679;48.888;15.544;2023-09-19T04:58:57;2.70;;;0.60;;
72635;SDS011;60679;48.888;15.544;2023-09-19T05:01:23;3.08;;;0.85;;
72635;SDS011;60679;48.888;15.544;2023-09-19T05:03:52;2.50;;;0.40;;
72635;SDS011;60679;48.888;15.544;2023-09-19T05:06:21;2.60;;;0.70;;
72635;SDS011;60679;48.888;15.544;2023-09-19T05:08:49;2.80;;;0.60;;
72635;SDS011;60679;48.888;15.544;2023-09-19T05:11:18;2.60;;;0.60;;
72635;SDS011;60679;48.888;15.544;2023-09-19T05:13:45;4.40;;;0.73;;
72635;SDS011;60679;48.888;15.544;2023-09-19T05:16:10;2.97;;;0.53;;
72635;SDS011;60679;48.888;15.544;2023-09-19T05:18:36;4.38;;;0.90;;
72635;SDS011;60679;48.888;15.544;2023-09-19T05:21:04;3.07;;;0.60;;
72635;SDS011;60679;48.888;15.544;2023-09-19T05:23:30;2.75;;;0.52;;
72635;SDS011;60679;48.888;15.544;2023-09-19T05:25:56;2.37;;;0.43;;
72635;SDS011;60679;48.888;15.544;2023-09-19T05:28:23;2.83;;;0.82;;
72635;SDS011;60679;48.888;15.544;2023-09-19T05:30:49;5.15;;;0.80;;
72635;SDS011;60679;48.888;15.544;2023-09-19T05:33:15;6.87;;;1.27;;
72635;SDS011;60679;48.888;15.544;2023-09-19T05:35:40;3.45;;;0.80;;
72635;SDS011;60679;48.888;15.544;2023-09-19T05:38:06;2.38;;;0.50;;
72635;SDS011;60679;48.888;15.544;2023-09-19T05:40:38;4.03;;;0.88;;
72635;SDS011;60679;48.888;15.544;2023-09-19T05:43:05;2.67;;;0.60;;
72635;SDS011;60679;48.888;15.544;2023-09-19T05:45:31;2.53;;;0.50;;
72635;SDS011;60679;48.888;15.544;2023-09-19T05:48:05;3.23;;;0.70;;
72635;SDS011;60679;48.888;15.544;2023-09-19T05:50:33;2.58;;;0.60;;
72635;SDS011;60679;48.888;15.544;2023-09-19T05:52:59;2.22;;;0.47;;
72635;SDS011;60679;48.888;15.544;2023-09-19T05:55:24;2.83;;;0.60;;
72635;SDS011;60679;48.888;15.544;2023-09-19T05:57:50;4.23;;;0.90;;
72635;SDS011;60679;48.888;15.544;2023-09-19T06:00:17;2.78;;;0.60;;
72635;SDS011;60679;48.888;15.544;2023-09-19T06:02:48;2.78;;;0.70;;
72635;SDS011;60679;48.888;15.544;2023-09-19T06:05:17;3.75;;;0.90;;
72635;SDS011;60679;48.888;15.544;2023-09-19T06:07:43;2.40;;;0.57;;
72635;SDS011;60679;48.888;15.544;2023-09-19T06:10:08;2.80;;;0.60;;
72635;SDS011;60679;48.888;15.544;2023-09-19T06:12:44;2.83;;;0.50;;
72635;SDS011;60679;48.888;15.544;2023-09-19T06:15:10;2.58;;;0.52;;
72635;SDS011;60679;48.888;15.544;2023-09-19T06:17:55;3.15;;;0.85;;
72635;SDS011;60679;48.888;15.544;2023-09-19T06:20:22;2.55;;;0.40;;
72635;SDS011;60679;48.888;15.544;2023-09-19T06:22:48;3.85;;;0.80;;
72635;SDS011;60679;48.888;15.544;2023-09-19T06:25:14;2.50;;;0.50;;
72635;SDS011;60679;48.888;15.544;2023-09-19T06:27:47;2.92;;;0.60;;
72635;SDS011;60679;48.888;15.544;2023-09-19T06:30:20;3.10;;;0.70;;
72635;SDS011;60679;48.888;15.544;2023-09-19T06:32:47;3.92;;;0.90;;
72635;SDS011;60679;48.888;15.544;2023-09-19T06:35:13;2.93;;;0.60;;
72635;SDS011;60679;48.888;15.544;2023-09-19T06:37:40;3.10;;;0.70;;
72635;SDS011;60679;48.888;15.544;2023-09-19T06:42:34;3.35;;;0.68;;
72635;SDS011;60679;48.888;15.544;2023-09-19T06:45:02;4.10;;;0.77;;
72635;SDS011;60679;48.888;15.544;2023-09-19T06:47:29;2.85;;;0.65;;
72635;SDS011;60679;48.888;15.544;2023-09-19T06:49:55;2.97;;;0.63;;
72635;SDS011;60679;48.888;15.544;2023-09-19T06:52:20;3.25;;;0.70;;
72635;SDS011;60679;48.888;15.544;2023-09-19T06:54:46;3.27;;;0.77;;
72635;SDS011;60679;48.888;15.544;2023-09-19T06:57:15;3.30;;;0.93;;
72635;SDS011;60679;48.888;15.544;2023-09-19T06:59:41;3.40;;;0.80;;
72635;SDS011;60679;48.888;15.544;2023-09-19T07:02:06;3.30;;;0.70;;
72635;SDS011;60679;48.888;15.544;2023-09-19T07:04:33;3.10;;;0.80;;
72635;SDS011;60679;48.888;15.544;2023-09-19T07:06:59;2.97;;;0.77;;
72635;SDS011;60679;48.888;15.544;2023-09-19T07:09:24;3.60;;;0.90;;
72635;SDS011;60679;48.888;15.544;2023-09-19T07:11:52;2.80;;;0.50;;
72635;SDS011;60679;48.888;15.544;2023-09-19T07:14:18;3.40;;;0.70;;
72635;SDS011;60679;48.888;15.544;2023-09-19T07:16:43;3.10;;;0.87;;
72635;SDS011;60679;48.888;15.544;2023-09-19T07:19:10;3.10;;;0.80;;
72635;SDS011;60679;48.888;15.544;2023-09-19T07:21:36;3.00;;;0.55;;
72635;SDS011;60679;48.888;15.544;2023-09-19T07:24:03;3.78;;;1.00;;
72635;SDS011;60679;48.888;15.544;2023-09-19T07:26:29;3.70;;;1.00;;
72635;SDS011;60679;48.888;15.544;2023-09-19T07:28:56;2.80;;;0.60;;
72635;SDS011;60679;48.888;15.544;2023-09-19T07:31:22;3.17;;;0.80;;
72635;SDS011;60679;48.888;15.544;2023-09-19T07:33:48;3.35;;;0.90;;
72635;SDS011;60679;48.888;15.544;2023-09-19T07:36:14;3.57;;;0.70;;
72635;SDS011;60679;48.888;15.544;2023-09-19T07:38:40;3.53;;;0.70;;
72635;SDS011;60679;48.888;15.544;2023-09-19T07:41:06;3.00;;;0.73;;
72635;SDS011;60679;48.888;15.544;2023-09-19T07:43:34;3.13;;;0.85;;
72635;SDS011;60679;48.888;15.544;2023-09-19T07:46:09;3.97;;;1.00;;
72635;SDS011;60679;48.888;15.544;2023-09-19T07:48:35;3.13;;;0.77;;
72635;SDS011;60679;48.888;15.544;2023-09-19T07:51:07;3.10;;;0.80;;
72635;SDS011;60679;48.888;15.544;2023-09-19T07:53:34;3.20;;;0.77;;
72635;SDS011;60679;48.888;15.544;2023-09-19T07:56:06;3.78;;;1.10;;
72635;SDS011;60679;48.888;15.544;2023-09-19T07:58:33;3.60;;;0.90;;
72635;SDS011;60679;48.888;15.544;2023-09-19T08:01:05;3.27;;;0.70;;
72635;SDS011;60679;48.888;15.544;2023-09-19T08:03:32;3.42;;;0.90;;
72635;SDS011;60679;48.888;15.544;2023-09-19T08:05:58;3.10;;;0.80;;
72635;SDS011;60679;48.888;15.544;2023-09-19T08:08:24;3.70;;;0.80;;
72635;SDS011;60679;48.888;15.544;2023-09-19T08:10:54;5.30;;;1.10;;
72635;SDS011;60679;48.888;15.544;2023-09-19T08:13:23;4.03;;;1.03;;
72635;SDS011;60679;48.888;15.544;2023-09-19T08:15:50;3.20;;;0.77;;
72635;SDS011;60679;48.888;15.544;2023-09-19T08:18:16;3.50;;;1.10;;
72635;SDS011;60679;48.888;15.544;2023-09-19T08:20:42;4.32;;;0.90;;
72635;SDS011;60679;48.888;15.544;2023-09-19T08:23:08;3.23;;;0.70;;
72635;SDS011;60679;48.888;15.544;2023-09-19T08:25:33;3.13;;;0.70;;
72635;SDS011;60679;48.888;15.544;2023-09-19T08:27:59;3.20;;;0.80;;
72635;SDS011;60679;48.888;15.544;2023-09-19T08:30:27;3.03;;;0.70;;
72635;SDS011;60679;48.888;15.544;2023-09-19T08:32:58;3.63;;;0.95;;
72635;SDS011;60679;48.888;15.544;2023-09-19T08:35:29;3.20;;;0.82;;
72635;SDS011;60679;48.888;15.544;2023-09-19T08:37:55;3.63;;;0.90;;
72635;SDS011;60679;48.888;15.544;2023-09-19T08:40:21;3.20;;;0.70;;
72635;SDS011;60679;48.888;15.544;2023-09-19T08:42:51;3.50;;;1.17;;
72635;SDS011;60679;48.888;15.544;2023-09-19T08:45:18;5.95;;;1.50;;
72635;SDS011;60679;48.888;15.544;2023-09-19T08:48:34;4.78;;;1.23;;
72635;SDS011;60679;48.888;15.544;2023-09-19T08:50:57;4.28;;;1.30;;
72635;SDS011;60679;48.888;15.544;2023-09-19T08:53:30;3.33;;;0.70;;
72635;SDS011;60679;48.888;15.544;2023-09-19T08:56:03;3.73;;;1.10;;
72635;SDS011;60679;48.888;15.544;2023-09-19T08:58:34;2.92;;;0.75;;
72635;SDS011;60679;48.888;15.544;2023-09-19T09:01:06;3.40;;;0.82;;
72635;SDS011;60679;48.888;15.544;2023-09-19T09:03:33;5.47;;;0.85;;
72635;SDS011;60679;48.888;15.544;2023-09-19T09:06:00;4.03;;;1.05;;
72635;SDS011;60679;48.888;15.544;2023-09-19T09:08:27;6.90;;;0.97;;
72635;SDS011;60679;48.888;15.544;2023-09-19T09:10:55;5.72;;;1.13;;
72635;SDS011;60679;48.888;15.544;2023-09-19T09:13:22;3.72;;;1.02;;
72635;SDS011;60679;48.888;15.544;2023-09-19T09:15:51;5.15;;;0.90;;
72635;SDS011;60679;48.888;15.544;2023-09-19T09:18:18;3.50;;;1.00;;
72635;SDS011;60679;48.888;15.544;2023-09-19T09:20:43;3.17;;;0.73;;
72635;SDS011;60679;48.888;15.544;2023-09-19T09:23:09;5.60;;;1.27;;
72635;SDS011;60679;48.888;15.544;2023-09-19T09:25:48;4.00;;;1.10;;
72635;SDS011;60679;48.888;15.544;2023-09-19T09:28:32;3.60;;;1.00;;
72635;SDS011;60679;48.888;15.544;2023-09-19T09:31:00;4.07;;;1.35;;
72635;SDS011;60679;48.888;15.544;2023-09-19T09:33:34;3.15;;;0.77;;
72635;SDS011;60679;48.888;15.544;2023-09-19T09:36:33;4.07;;;1.17;;
72635;SDS011;60679;48.888;15.544;2023-09-19T09:39:01;4.95;;;1.00;;
72635;SDS011;60679;48.888;15.544;2023-09-19T09:41:41;3.60;;;1.00;;
72635;SDS011;60679;48.888;15.544;2023-09-19T09:44:25;3.72;;;1.25;;
72635;SDS011;60679;48.888;15.544;2023-09-19T09:46:52;3.40;;;1.02;;
72635;SDS011;60679;48.888;15.544;2023-09-19T09:49:24;3.50;;;1.10;;
72635;SDS011;60679;48.888;15.544;2023-09-19T09:52:06;6.80;;;1.10;;
72635;SDS011;60679;48.888;15.544;2023-09-19T09:54:35;3.80;;;1.33;;
72635;SDS011;60679;48.888;15.544;2023-09-19T09:57:04;3.72;;;1.10;;
72635;SDS011;60679;48.888;15.544;2023-09-19T09:59:52;3.53;;;1.10;;
72635;SDS011;60679;48.888;15.544;2023-09-19T10:02:21;3.28;;;0.80;;
72635;SDS011;60679;48.888;15.544;2023-09-19T10:04:54;4.30;;;0.90;;
72635;SDS011;60679;48.888;15.544;2023-09-19T10:07:40;3.40;;;0.90;;
72635;SDS011;60679;48.888;15.544;2023-09-19T10:10:13;3.60;;;0.85;;
72635;SDS011;60679;48.888;15.544;2023-09-19T10:12:45;4.80;;;1.30;;
72635;SDS011;60679;48.888;15.544;2023-09-19T10:15:13;4.53;;;1.00;;
72635;SDS011;60679;48.888;15.544;2023-09-19T10:17:42;3.58;;;0.90;;
72635;SDS011;60679;48.888;15.544;2023-09-19T10:20:14;3.50;;;0.90;;
72635;SDS011;60679;48.888;15.544;2023-09-19T10:23:17;4.50;;;1.20;;
72635;SDS011;60679;48.888;15.544;2023-09-19T10:25:48;3.50;;;0.95;;
72635;SDS011;60679;48.888;15.544;2023-09-19T10:28:15;4.13;;;1.10;;
72635;SDS011;60679;48.888;15.544;2023-09-19T10:30:47;3.40;;;0.80;;
72635;SDS011;60679;48.888;15.544;2023-09-19T10:33:16;3.57;;;0.90;;
72635;SDS011;60679;48.888;15.544;2023-09-19T10:35:45;3.13;;;0.73;;
72635;SDS011;60679;48.888;15.544;2023-09-19T10:38:12;3.30;;;0.77;;
72635;SDS011;60679;48.888;15.544;2023-09-19T10:40:41;3.88;;;0.90;;
72635;SDS011;60679;48.888;15.544;2023-09-19T10:43:18;3.53;;;1.08;;
72635;SDS011;60679;48.888;15.544;2023-09-19T10:45:46;3.60;;;0.90;;
72635;SDS011;60679;48.888;15.544;2023-09-19T10:48:17;3.70;;;1.10;;
72635;SDS011;60679;48.888;15.544;2023-09-19T10:53:50;3.58;;;0.90;;
72635;SDS011;60679;48.888;15.544;2023-09-19T10:56:26;4.57;;;0.80;;
72635;SDS011;60679;48.888;15.544;2023-09-19T11:01:54;4.25;;;1.17;;
72635;SDS011;60679;48.888;15.544;2023-09-19T11:04:27;3.92;;;1.20;;
72635;SDS011;60679;48.888;15.544;2023-09-19T11:07:06;4.13;;;1.20;;
72635;SDS011;60679;48.888;15.544;2023-09-19T11:09:49;7.00;;;2.03;;
72635;SDS011;60679;48.888;15.544;2023-09-19T11:15:06;3.90;;;1.20;;
72635;SDS011;60679;48.888;15.544;2023-09-19T11:17:37;4.05;;;1.33;;
72635;SDS011;60679;48.888;15.544;2023-09-19T11:33:19;3.53;;;1.05;;
72635;SDS011;60679;48.888;15.544;2023-09-19T11:46:32;4.38;;;1.65;;
72635;SDS011;60679;48.888;15.544;2023-09-19T11:49:05;3.60;;;1.13;;
72635;SDS011;60679;48.888;15.544;2023-09-19T11:51:45;3.90;;;1.47;;
72635;SDS011;60679;48.888;15.544;2023-09-19T11:54:13;4.15;;;0.70;;
72635;SDS011;60679;48.888;15.544;2023-09-19T11:56:53;3.80;;;1.05;;
72635;SDS011;60679;48.888;15.544;2023-09-19T11:59:26;4.18;;;0.90;;
72635;SDS011;60679;48.888;15.544;2023-09-19T12:01:54;6.13;;;1.13;;
72635;SDS011;60679;48.888;15.544;2023-09-19T12:04:33;2.90;;;0.70;;
72635;SDS011;60679;48.888;15.544;2023-09-19T12:07:06;3.97;;;1.15;;
72635;SDS011;60679;48.888;15.544;2023-09-19T12:09:40;5.78;;;1.20;;
72635;SDS011;60679;48.888;15.544;2023-09-19T12:12:09;3.85;;;1.25;;
72635;SDS011;60679;48.888;15.544;2023-09-19T12:14:38;4.00;;;1.50;;
72635;SDS011;60679;48.888;15.544;2023-09-19T12:17:07;3.50;;;1.03;;
72635;SDS011;60679;48.888;15.544;2023-09-19T12:19:32;4.28;;;1.10;;
72635;SDS011;60679;48.888;15.544;2023-09-19T12:22:01;3.90;;;1.60;;
72635;SDS011;60679;48.888;15.544;2023-09-19T12:24:31;4.30;;;1.50;;
72635;SDS011;60679;48.888;15.544;2023-09-19T12:27:04;3.95;;;1.77;;
72635;SDS011;60679;48.888;15.544;2023-09-19T12:29:32;3.70;;;1.30;;
72635;SDS011;60679;48.888;15.544;2023-09-19T12:32:06;4.00;;;1.27;;
72635;SDS011;60679;48.888;15.544;2023-09-19T12:34:32;4.22;;;1.40;;
72635;SDS011;60679;48.888;15.544;2023-09-19T12:37:03;4.25;;;1.75;;
72635;SDS011;60679;48.888;15.544;2023-09-19T12:39:50;4.13;;;1.60;;
72635;SDS011;60679;48.888;15.544;2023-09-19T12:42:23;3.80;;;1.40;;
72635;SDS011;60679;48.888;15.544;2023-09-19T12:44:57;8.70;;;1.80;;
72635;SDS011;60679;48.888;15.544;2023-09-19T12:47:25;5.15;;;1.67;;
72635;SDS011;60679;48.888;15.544;2023-09-19T12:52:51;4.37;;;1.13;;
72635;SDS011;60679;48.888;15.544;2023-09-19T13:00:34;4.30;;;1.30;;
72635;SDS011;60679;48.888;15.544;2023-09-19T13:05:50;5.13;;;1.00;;
72635;SDS011;60679;48.888;15.544;2023-09-19T13:08:23;3.50;;;1.15;;
72635;SDS011;60679;48.888;15.544;2023-09-19T13:11:03;3.90;;;1.55;;
72635;SDS011;60679;48.888;15.544;2023-09-19T13:16:11;3.80;;;1.27;;
72635;SDS011;60679;48.888;15.544;2023-09-19T13:21:17;3.53;;;1.23;;
72635;SDS011;60679;48.888;15.544;2023-09-19T13:23:52;3.60;;;1.10;;
72635;SDS011;60679;48.888;15.544;2023-09-19T13:26:24;3.97;;;1.40;;
72635;SDS011;60679;48.888;15.544;2023-09-19T13:28:50;3.45;;;0.90;;
72635;SDS011;60679;48.888;15.544;2023-09-19T13:31:15;3.83;;;1.20;;
72635;SDS011;60679;48.888;15.544;2023-09-19T13:33:45;3.50;;;1.13;;
72635;SDS011;60679;48.888;15.544;2023-09-19T13:36:11;3.87;;;1.10;;
72635;SDS011;60679;48.888;15.544;2023-09-19T13:38:38;3.28;;;0.80;;
72635;SDS011;60679;48.888;15.544;2023-09-19T13:41:05;3.75;;;0.73;;
72635;SDS011;60679;48.888;15.544;2023-09-19T13:43:35;3.35;;;0.80;;
72635;SDS011;60679;48.888;15.544;2023-09-19T13:46:01;4.97;;;1.13;;
72635;SDS011;60679;48.888;15.544;2023-09-19T13:48:27;3.90;;;0.80;;
72635;SDS011;60679;48.888;15.544;2023-09-19T13:50:55;3.40;;;0.70;;
72635;SDS011;60679;48.888;15.544;2023-09-19T13:53:24;3.70;;;1.20;;
72635;SDS011;60679;48.888;15.544;2023-09-19T13:55:59;3.92;;;1.38;;
72635;SDS011;60679;48.888;15.544;2023-09-19T13:58:24;3.50;;;0.80;;
72635;SDS011;60679;48.888;15.544;2023-09-19T14:00:53;3.93;;;0.90;;
72635;SDS011;60679;48.888;15.544;2023-09-19T14:03:23;3.42;;;1.00;;
72635;SDS011;60679;48.888;15.544;2023-09-19T14:05:49;3.60;;;1.00;;
72635;SDS011;60679;48.888;15.544;2023-09-19T14:08:16;3.33;;;0.93;;
72635;SDS011;60679;48.888;15.544;2023-09-19T14:10:42;3.60;;;1.00;;
72635;SDS011;60679;48.888;15.544;2023-09-19T14:13:07;3.60;;;1.20;;
72635;SDS011;60679;48.888;15.544;2023-09-19T14:15:36;3.00;;;0.60;;
72635;SDS011;60679;48.888;15.544;2023-09-19T14:18:04;2.80;;;0.60;;
72635;SDS011;60679;48.888;15.544;2023-09-19T14:20:30;3.05;;;0.70;;
72635;SDS011;60679;48.888;15.544;2023-09-19T14:22:56;3.20;;;0.70;;
72635;SDS011;60679;48.888;15.544;2023-09-19T14:25:24;3.60;;;1.00;;
72635;SDS011;60679;48.888;15.544;2023-09-19T14:27:50;3.35;;;0.90;;
72635;SDS011;60679;48.888;15.544;2023-09-19T14:30:16;3.67;;;0.87;;
72635;SDS011;60679;48.888;15.544;2023-09-19T14:32:42;2.95;;;0.70;;
72635;SDS011;60679;48.888;15.544;2023-09-19T14:35:07;3.50;;;1.00;;
72635;SDS011;60679;48.888;15.544;2023-09-19T14:37:34;3.78;;;0.93;;
72635;SDS011;60679;48.888;15.544;2023-09-19T14:40:00;3.20;;;0.87;;
72635;SDS011;60679;48.888;15.544;2023-09-19T14:42:32;3.50;;;0.70;;
72635;SDS011;60679;48.888;15.544;2023-09-19T14:44:57;2.97;;;0.50;;
72635;SDS011;60679;48.888;15.544;2023-09-19T14:47:23;3.13;;;0.70;;
72635;SDS011;60679;48.888;15.544;2023-09-19T14:49:48;3.30;;;0.80;;
72635;SDS011;60679;48.888;15.544;2023-09-19T14:52:14;3.85;;;1.10;;
72635;SDS011;60679;48.888;15.544;2023-09-19T14:54:40;3.43;;;0.93;;
72635;SDS011;60679;48.888;15.544;2023-09-19T14:57:06;3.75;;;0.60;;
72635;SDS011;60679;48.888;15.544;2023-09-19T14:59:34;2.90;;;0.50;;
72635;SDS011;60679;48.888;15.544;2023-09-19T15:02:06;3.70;;;1.20;;
72635;SDS011;60679;48.888;15.544;2023-09-19T15:04:32;2.83;;;0.70;;
72635;SDS011;60679;48.888;15.544;2023-09-19T15:06:58;4.35;;;0.68;;
72635;SDS011;60679;48.888;15.544;2023-09-19T15:09:24;3.65;;;0.90;;
72635;SDS011;60679;48.888;15.544;2023-09-19T15:11:54;3.30;;;1.00;;
72635;SDS011;60679;48.888;15.544;2023-09-19T15:14:21;3.33;;;0.70;;
72635;SDS011;60679;48.888;15.544;2023-09-19T15:16:47;2.97;;;0.60;;
72635;SDS011;60679;48.888;15.544;2023-09-19T15:19:14;3.30;;;0.70;;
72635;SDS011;60679;48.888;15.544;2023-09-19T15:21:42;2.95;;;0.60;;
72635;SDS011;60679;48.888;15.544;2023-09-19T15:24:08;3.08;;;0.80;;
72635;SDS011;60679;48.888;15.544;2023-09-19T15:26:35;3.50;;;1.00;;
72635;SDS011;60679;48.888;15.544;2023-09-19T15:29:16;3.30;;;0.70;;
72635;SDS011;60679;48.888;15.544;2023-09-19T15:31:42;3.80;;;0.85;;
72635;SDS011;60679;48.888;15.544;2023-09-19T15:34:18;2.75;;;0.60;;
72635;SDS011;60679;48.888;15.544;2023-09-19T15:36:53;3.10;;;0.77;;
72635;SDS011;60679;48.888;15.544;2023-09-19T15:39:30;3.58;;;1.00;;
72635;SDS011;60679;48.888;15.544;2023-09-19T15:42:01;3.63;;;0.80;;
72635;SDS011;60679;48.888;15.544;2023-09-19T15:47:20;3.33;;;0.80;;
72635;SDS011;60679;48.888;15.544;2023-09-19T15:49:46;4.25;;;0.70;;
72635;SDS011;60679;48.888;15.544;2023-09-19T15:52:14;3.80;;;1.00;;
72635;SDS011;60679;48.888;15.544;2023-09-19T15:54:42;3.70;;;1.00;;